Language: 


Des rapports , des résumés tant et plus, au choix de chacun....


Données Historiques de Météogheer
Journalier Rapport pour Janvier 4, 2017 Unitée:  Les deux    Impériale   Métrique
Suivant Jour »
Journalier Hebdomadaire Mensuel Annuel Sur mesure
  Max: Min: Moyenne:
Température: 45.9 °F /  7.7 °C 36.9 °F /  2.7 °C 41 °F /  5 °C
Point de rosée: 44.1 °F /  6.7 °C 34.7 °F /  1.5 °C 37.8 °F /  3.2 °C
Humidité: 98% 72% 89%
Vent: 13.6mph /  21.9km/h - 5.7mph /  9.1km/h
Rafales: 690.8mph /  1111.8km/h - -
Vent- - WNW
Pression: 30.3 in /  1024.9 hPa 30.1 in /  1018.2 hPa -
Pluie: 0.02 in /  0.5 mm    
Historical Graphs
 
 
Données tabulaires pour Janvier 4, 2017
Heure Température Point de rosée Pression Vent Vent Rafales Humidité Pluie Taux (Horaire) Conditions
00:09 40.3 °F /  4.6 °C 37.9 °F /  3.3 °C 30.2in /  1021.9hPa West 5.8mph /  9.3km/h 11mph /  17.7km/h 91% 0in /  0.0mm
00:19 40.3 °F /  4.6 °C 37.6 °F /  3.1 °C 30.2in /  1020.9hPa West 12.3mph /  19.8km/h 12.8mph /  20.6km/h 90% 0in /  0.0mm
00:29 40.3 °F /  4.6 °C 37.6 °F /  3.1 °C 30.2in /  1020.9hPa West 6.3mph /  10.1km/h 12.3mph /  19.8km/h 90% 0in /  0.0mm
00:39 40.3 °F /  4.6 °C 37.2 °F /  2.9 °C 30.2in /  1020.9hPa West 6mph /  9.7km/h 12.3mph /  19.8km/h 89% 0in /  0.0mm
00:49 40.3 °F /  4.6 °C 37.2 °F /  2.9 °C 30.2in /  1020.9hPa WNW 11mph /  17.7km/h 11.4mph /  18.3km/h 89% 0in /  0.0mm
00:59 40.3 °F /  4.6 °C 37.2 °F /  2.9 °C 30.2in /  1020.9hPa West 7.6mph /  12.2km/h 11mph /  17.7km/h 89% 0in /  0.0mm
01:09 40.5 °F /  4.7 °C 37.6 °F /  3.1 °C 30.2in /  1020.9hPa West 6.3mph /  10.1km/h 14.3mph /  23.0km/h 89% 0in /  0.0mm
01:19 40.3 °F /  4.6 °C 37 °F /  2.8 °C 30.2in /  1020.9hPa West 8.9mph /  14.3km/h 14.5mph /  23.3km/h 88% 0in /  0.0mm
01:29 40.3 °F /  4.6 °C 37 °F /  2.8 °C 30.2in /  1020.9hPa West 11.4mph /  18.3km/h 15.2mph /  24.5km/h 88% 0in /  0.0mm
01:39 40.3 °F /  4.6 °C 37 °F /  2.8 °C 30.2in /  1020.9hPa West 12.1mph /  19.5km/h 13.2mph /  21.2km/h 88% 0in /  0.0mm
01:49 40.3 °F /  4.6 °C 36.7 °F /  2.6 °C 30.2in /  1020.9hPa West 8.7mph /  14.0km/h 15.2mph /  24.5km/h 87% 0in /  0.0mm
01:59 40.1 °F /  4.5 °C 36.7 °F /  2.6 °C 30.2in /  1020.9hPa West 10.1mph /  16.3km/h 14.8mph /  23.8km/h 87% 0in /  0.0mm
02:09 40.1 °F /  4.5 °C 36.7 °F /  2.6 °C 30.2in /  1020.9hPa WNW 8.5mph /  13.7km/h 11.4mph /  18.3km/h 87% 0in /  0.0mm
02:19 40.3 °F /  4.6 °C 36.7 °F /  2.6 °C 30.2in /  1020.9hPa WSW 8.7mph /  14.0km/h 15.4mph /  24.8km/h 87% 0in /  0.0mm
02:29 40.1 °F /  4.5 °C 36.3 °F /  2.4 °C 30.2in /  1020.9hPa West 4.7mph /  7.6km/h 13mph /  20.9km/h 86% 0in /  0.0mm
02:39 40.1 °F /  4.5 °C 36.3 °F /  2.4 °C 30.2in /  1020.9hPa West 8.1mph /  13.0km/h 13mph /  20.9km/h 86% 0in /  0.0mm
02:59 39.9 °F /  4.4 °C 36.1 °F /  2.3 °C 30.2in /  1020.9hPa WSW 8.5mph /  13.7km/h 13.2mph /  21.2km/h 86% 0in /  0.0mm
03:09 39.9 °F /  4.4 °C 36.3 °F /  2.4 °C 30.2in /  1020.9hPa West 7.8mph /  12.6km/h 12.1mph /  19.5km/h 87% 0in /  0.0mm
03:19 40.1 °F /  4.5 °C 36.7 °F /  2.6 °C 30.1in /  1019.9hPa WSW 10.1mph /  16.3km/h 13.6mph /  21.9km/h 87% 0in /  0.0mm
03:29 40.1 °F /  4.5 °C 36.7 °F /  2.6 °C 30.1in /  1019.9hPa NNW 9.8mph /  15.8km/h 12.1mph /  19.5km/h 87% 0in /  0.0mm
03:39 40.3 °F /  4.6 °C 36.7 °F /  2.6 °C 30.1in /  1019.9hPa West 7.8mph /  12.6km/h 15.2mph /  24.5km/h 87% 0in /  0.0mm
03:49 40.3 °F /  4.6 °C 36.7 °F /  2.6 °C 30.1in /  1019.9hPa West 7.6mph /  12.2km/h 13mph /  20.9km/h 87% 0in /  0.0mm
03:59 40.3 °F /  4.6 °C 37 °F /  2.8 °C 30.1in /  1019.9hPa WNW 10.3mph /  16.6km/h 15.2mph /  24.5km/h 88% 0in /  0.0mm
04:09 40.5 °F /  4.7 °C 37.2 °F /  2.9 °C 30.1in /  1019.9hPa West 11mph /  17.7km/h 13.2mph /  21.2km/h 88% 0in /  0.0mm
04:19 40.5 °F /  4.7 °C 37.2 °F /  2.9 °C 30.1in /  1019.9hPa West 10.7mph /  17.2km/h 12.8mph /  20.6km/h 88% 0in /  0.0mm
04:29 40.6 °F /  4.8 °C 37.4 °F /  3.0 °C 30.1in /  1019.9hPa SSW 6mph /  9.7km/h 12.5mph /  20.1km/h 88% 0in /  0.0mm
04:39 40.6 °F /  4.8 °C 37.4 °F /  3.0 °C 30.1in /  1018.8hPa West 8.1mph /  13.0km/h 10.5mph /  16.9km/h 88% 0in /  0.0mm
04:49 40.6 °F /  4.8 °C 37.4 °F /  3.0 °C 30.1in /  1018.8hPa West 10.7mph /  17.2km/h 12.5mph /  20.1km/h 88% 0in /  0.0mm
04:59 40.6 °F /  4.8 °C 37.4 °F /  3.0 °C 30.1in /  1018.8hPa WNW 6.3mph /  10.1km/h 12.5mph /  20.1km/h 88% 0in /  0.0mm
05:09 40.6 °F /  4.8 °C 37.8 °F /  3.2 °C 30.1in /  1018.8hPa West 6.3mph /  10.1km/h 12.5mph /  20.1km/h 89% 0in /  0.0mm
05:19 40.6 °F /  4.8 °C 37.8 °F /  3.2 °C 30.1in /  1018.8hPa WSW 10.5mph /  16.9km/h 13.9mph /  22.4km/h 89% 0in /  0.0mm
05:29 40.6 °F /  4.8 °C 37.8 °F /  3.2 °C 30.1in /  1018.8hPa WSW 8.5mph /  13.7km/h 12.5mph /  20.1km/h 89% 0in /  0.0mm
05:39 40.8 °F /  4.9 °C 37.8 °F /  3.2 °C 30.1in /  1018.8hPa West 6.3mph /  10.1km/h 13mph /  20.9km/h 89% 0in /  0.0mm
05:49 40.6 °F /  4.8 °C 37.9 °F /  3.3 °C 30.1in /  1018.8hPa WNW 10.1mph /  16.3km/h 10.9mph /  17.5km/h 90% 0in /  0.0mm
05:59 40.6 °F /  4.8 °C 38.1 °F /  3.4 °C 30.1in /  1018.8hPa West 10.5mph /  16.9km/h 12.6mph /  20.3km/h 91% 0in /  0.0mm
06:09 40.5 °F /  4.7 °C 38.3 °F /  3.5 °C 30.1in /  1018.8hPa WNW 5.8mph /  9.3km/h 11.9mph /  19.1km/h 92% 0in /  0.0mm
06:19 40.5 °F /  4.7 °C 38.7 °F /  3.7 °C 30.1in /  1018.8hPa West 10.7mph /  17.2km/h 15.4mph /  24.8km/h 93% 0in /  0.0mm
06:29 40.3 °F /  4.6 °C 38.7 °F /  3.7 °C 30.1in /  1018.8hPa WSW 4mph /  6.4km/h 10.7mph /  17.2km/h 94% 0in /  0.0mm
06:39 40.1 °F /  4.5 °C 38.5 °F /  3.6 °C 30.1in /  1018.8hPa WNW 10.1mph /  16.3km/h 11.9mph /  19.1km/h 94% 0in /  0.0mm
06:49 40.1 °F /  4.5 °C 38.8 °F /  3.8 °C 30.1in /  1018.8hPa NNW 6.9mph /  11.1km/h 13.7mph /  22.0km/h 95% 0in /  0.0mm
06:59 40.3 °F /  4.6 °C 39.2 °F /  4.0 °C 30.1in /  1018.8hPa WNW 10.1mph /  16.3km/h 10.3mph /  16.6km/h 96% 0in /  0.0mm
07:09 40.3 °F /  4.6 °C 39.2 °F /  4.0 °C 30.1in /  1018.8hPa WSW 6mph /  9.7km/h 11mph /  17.7km/h 96% 0in /  0.0mm
07:19 40.3 °F /  4.6 °C 39.2 °F /  4.0 °C 30.1in /  1018.8hPa West 6mph /  9.7km/h 13mph /  20.9km/h 96% 0in /  0.0mm
07:29 40.3 °F /  4.6 °C 39.6 °F /  4.2 °C 30.1in /  1018.8hPa West 5.6mph /  9.0km/h 12.1mph /  19.5km/h 97% 0in /  0.0mm
07:39 40.3 °F /  4.6 °C 39.6 °F /  4.2 °C 30.1in /  1018.8hPa West 5.8mph /  9.3km/h 9.8mph /  15.8km/h 97% 0in /  0.0mm
07:49 40.3 °F /  4.6 °C 39.6 °F /  4.2 °C 30.1in /  1018.8hPa West 6.5mph /  10.5km/h 10.7mph /  17.2km/h 97% 0in /  0.0mm
07:59 40.3 °F /  4.6 °C 39.6 °F /  4.2 °C 30.1in /  1018.8hPa West 2mph /  3.2km/h 8.1mph /  13.0km/h 97% 0in /  0.0mm
08:09 40.3 °F /  4.6 °C 39.7 °F /  4.3 °C 30.1in /  1018.8hPa West 2.7mph /  4.3km/h 7.6mph /  12.2km/h 98% 0in /  0.0mm
08:19 40.3 °F /  4.6 °C 39.7 °F /  4.3 °C 30.1in /  1018.8hPa West 5.4mph /  8.7km/h 8.1mph /  13.0km/h 98% 0in /  0.0mm
08:29 40.5 °F /  4.7 °C 39.9 °F /  4.4 °C 30.1in /  1018.8hPa West 7.6mph /  12.2km/h 8.1mph /  13.0km/h 98% 0in /  0.0mm
08:39 40.6 °F /  4.8 °C 40.1 °F /  4.5 °C 30.1in /  1018.8hPa West 3.1mph /  5.0km/h 7.6mph /  12.2km/h 98% 0in /  0.0mm
08:49 40.8 °F /  4.9 °C 39.9 °F /  4.4 °C 30.1in /  1018.8hPa WSW 4mph /  6.4km/h 8.5mph /  13.7km/h 97% 0in /  0.0mm
08:59 40.8 °F /  4.9 °C 40.3 °F /  4.6 °C 30.1in /  1018.8hPa WNW 5.4mph /  8.7km/h 8.5mph /  13.7km/h 98% 0in /  0.0mm
09:09 40.8 °F /  4.9 °C 40.3 °F /  4.6 °C 30.1in /  1018.2hPa West 4.7mph /  7.6km/h 7.6mph /  12.2km/h 98% 0in /  0.0mm
09:19 41 °F /  5.0 °C 40.5 °F /  4.7 °C 30.1in /  1018.2hPa West 5.6mph /  9.0km/h 7mph /  11.3km/h 98% 0in /  0.0mm
09:29 41.2 °F /  5.1 °C 40.6 °F /  4.8 °C 30.1in /  1018.2hPa Calm   5.6mph /  9.0km/h 98% 0in /  0.0mm
09:39 41.7 °F /  5.4 °C 41.2 °F /  5.1 °C 30.1in /  1018.8hPa NNE 3.8mph /  6.1km/h 7.6mph /  12.2km/h 98% 0in /  0.0mm
09:49 42.3 °F /  5.7 °C 41.7 °F /  5.4 °C 30.1in /  1018.8hPa WNW 2.7mph /  4.3km/h 7.6mph /  12.2km/h 98% 0in /  0.0mm
09:59 43 °F /  6.1 °C 42.4 °F /  5.8 °C 30.1in /  1018.8hPa West 5.6mph /  9.0km/h 9.6mph /  15.4km/h 98% 0in /  0.0mm
10:09 43.3 °F /  6.3 °C 42.8 °F /  6.0 °C 30.1in /  1018.8hPa NW 8.5mph /  13.7km/h 8.5mph /  13.7km/h 98% 0in /  0.0mm
10:19 43.9 °F /  6.6 °C 43.3 °F /  6.3 °C 30.1in /  1018.8hPa NW 4.7mph /  7.6km/h 10.3mph /  16.6km/h 98% 0in /  0.0mm
10:29 44.2 °F /  6.8 °C 43.3 °F /  6.3 °C 30.1in /  1018.8hPa NW 4.7mph /  7.6km/h 4.7mph /  7.6km/h 97% 0in /  0.0mm
10:39 44.2 °F /  6.8 °C 43.5 °F /  6.4 °C 30.1in /  1018.8hPa NW 4.7mph /  7.6km/h 4.7mph /  7.6km/h 97% 0in /  0.0mm
10:49 44.8 °F /  7.1 °C 43.9 °F /  6.6 °C 30.1in /  1018.8hPa NW 3.6mph /  5.8km/h 10.3mph /  16.6km/h 97% 0in /  0.0mm
10:59 45 °F /  7.2 °C 43.9 °F /  6.6 °C 30.1in /  1018.8hPa NNW 3.6mph /  5.8km/h 12.1mph /  19.5km/h 96% 0in /  0.0mm
11:09 45.1 °F /  7.3 °C 44.1 °F /  6.7 °C 30.1in /  1019.9hPa NNW 5.4mph /  8.7km/h 11.4mph /  18.3km/h 96% 0in /  0.0mm
11:19 45.1 °F /  7.3 °C 44.1 °F /  6.7 °C 30.1in /  1019.9hPa NW 3.8mph /  6.1km/h 21mph /  33.8km/h 96% 0in /  0.0mm
11:29 45 °F /  7.2 °C 43.9 °F /  6.6 °C 30.1in /  1019.9hPa North 2mph /  3.2km/h 21mph /  33.8km/h 96% 0in /  0.0mm
11:39 45.1 °F /  7.3 °C 44.1 °F /  6.7 °C 30.1in /  1019.9hPa West 5.8mph /  9.3km/h 7.8mph /  12.6km/h 96% 0in /  0.0mm
11:49 45.1 °F /  7.3 °C 44.1 °F /  6.7 °C 30.2in /  1020.9hPa West 3.4mph /  5.5km/h 20.6mph /  33.1km/h 96% 0in /  0.0mm
11:59 45 °F /  7.2 °C 43.9 °F /  6.6 °C 30.2in /  1020.9hPa WNW 4.7mph /  7.6km/h 6.5mph /  10.5km/h 96% 0in /  0.0mm
12:09 44.4 °F /  6.9 °C 43.5 °F /  6.4 °C 30.1in /  1019.9hPa NNE 8.5mph /  13.7km/h 21mph /  33.8km/h 96% 0in /  0.0mm
12:19 43.3 °F /  6.3 °C 41.4 °F /  5.2 °C 30.2in /  1020.9hPa NNW 8.5mph /  13.7km/h 690.8mph /  1111.8km/h 93% 0in /  0.0mm
12:29 43 °F /  6.1 °C 40.8 °F /  4.9 °C 30.2in /  1020.9hPa NNW 7.4mph /  11.9km/h 9.6mph /  15.4km/h 92% 0in /  0.0mm
12:39 42.6 °F /  5.9 °C 39.9 °F /  4.4 °C 30.2in /  1020.9hPa WNW 5.6mph /  9.0km/h 9.8mph /  15.8km/h 90% 0in /  0.0mm
12:59 43.2 °F /  6.2 °C 40.6 °F /  4.8 °C 30.1in /  1019.9hPa North 3.6mph /  5.8km/h 8.9mph /  14.3km/h 91% 0.03in /  0.8mm
13:49 45.9 °F /  7.7 °C 39.6 °F /  4.2 °C 30.1in /  1018.8hPa WNW 6mph /  9.7km/h 12.5mph /  20.1km/h 79% 0.02in /  0.5mm
13:59 45.7 °F /  7.6 °C 37.4 °F /  3.0 °C 30.1in /  1018.8hPa North 8.7mph /  14.0km/h 14.3mph /  23.0km/h 73% 0in /  0.0mm
14:09 45.3 °F /  7.4 °C 36.9 °F /  2.7 °C 30.1in /  1019.9hPa North 9.8mph /  15.8km/h 12.5mph /  20.1km/h 72% 0in /  0.0mm
14:19 45.9 °F /  7.7 °C 37.2 °F /  2.9 °C 30.1in /  1019.9hPa North 6.5mph /  10.5km/h 20.8mph /  33.5km/h 72% 0in /  0.0mm
14:29 44.1 °F /  6.7 °C 36.9 °F /  2.7 °C 30.2in /  1020.9hPa North 7.4mph /  11.9km/h 17.9mph /  28.8km/h 76% 0in /  0.0mm
14:39 43.5 °F /  6.4 °C 36.7 °F /  2.6 °C 30.2in /  1020.9hPa North 7.8mph /  12.6km/h 12.3mph /  19.8km/h 77% 0in /  0.0mm
14:49 43.3 °F /  6.3 °C 36.7 °F /  2.6 °C 30.2in /  1020.9hPa North 4mph /  6.4km/h 13mph /  20.9km/h 77% 0in /  0.0mm
14:59 43.5 °F /  6.4 °C 37.4 °F /  3.0 °C 30.2in /  1020.9hPa North 13.6mph /  21.9km/h 14.8mph /  23.8km/h 79% 0in /  0.0mm
15:09 43.5 °F /  6.4 °C 36.7 °F /  2.6 °C 30.2in /  1020.9hPa North 11mph /  17.7km/h 17.7mph /  28.5km/h 77% 0in /  0.0mm
15:19 43.5 °F /  6.4 °C 36.3 °F /  2.4 °C 30.2in /  1020.9hPa NNW 3.1mph /  5.0km/h 13.2mph /  21.2km/h 76% 0in /  0.0mm
15:29 43.5 °F /  6.4 °C 36.3 °F /  2.4 °C 30.2in /  1020.9hPa North 8.1mph /  13.0km/h 12.8mph /  20.6km/h 76% 0in /  0.0mm
15:39 44.1 °F /  6.7 °C 36.7 °F /  2.6 °C 30.2in /  1020.9hPa NNE 4mph /  6.4km/h 12.3mph /  19.8km/h 75% 0in /  0.0mm
15:49 43.5 °F /  6.4 °C 36.3 °F /  2.4 °C 30.2in /  1020.9hPa WNW 6mph /  9.7km/h 11.4mph /  18.3km/h 76% 0in /  0.0mm
15:59 43 °F /  6.1 °C 36 °F /  2.2 °C 30.1in /  1019.9hPa North 3.4mph /  5.5km/h 9.6mph /  15.4km/h 76% 0in /  0.0mm
16:09 42.6 °F /  5.9 °C 36 °F /  2.2 °C 30.2in /  1020.9hPa NNW 6.3mph /  10.1km/h 9.6mph /  15.4km/h 77% 0in /  0.0mm
16:19 42.3 °F /  5.7 °C 36.1 °F /  2.3 °C 30.2in /  1020.9hPa NW 5.6mph /  9.0km/h 8.7mph /  14.0km/h 79% 0in /  0.0mm
16:29 42.1 °F /  5.6 °C 36 °F /  2.2 °C 30.1in /  1019.9hPa WNW 4.9mph /  7.9km/h 11mph /  17.7km/h 79% 0in /  0.0mm
16:39 42.1 °F /  5.6 °C 36 °F /  2.2 °C 30.2in /  1020.9hPa NNW 5.8mph /  9.3km/h 10.5mph /  16.9km/h 79% 0in /  0.0mm
16:49 42.1 °F /  5.6 °C 36 °F /  2.2 °C 30.2in /  1020.9hPa NNE 6mph /  9.7km/h 10.1mph /  16.3km/h 79% 0in /  0.0mm
16:59 41.5 °F /  5.3 °C 35.4 °F /  1.9 °C 30.1in /  1019.9hPa NNE 1.6mph /  2.6km/h 6.5mph /  10.5km/h 79% 0in /  0.0mm
17:09 41 °F /  5.0 °C 35.1 °F /  1.7 °C 30.2in /  1020.9hPa North 2mph /  3.2km/h 5.6mph /  9.0km/h 79% 0in /  0.0mm
17:19 40.6 °F /  4.8 °C 35.1 °F /  1.7 °C 30.2in /  1020.9hPa Calm   8.7mph /  14.0km/h 80% 0in /  0.0mm
17:29 40.6 °F /  4.8 °C 35.2 °F /  1.8 °C 30.2in /  1020.9hPa WNW 4.9mph /  7.9km/h 8.5mph /  13.7km/h 81% 0in /  0.0mm
17:39 40.3 °F /  4.6 °C 35.2 °F /  1.8 °C 30.2in /  1020.9hPa West 2.7mph /  4.3km/h 7.6mph /  12.2km/h 82% 0in /  0.0mm
17:49 40.5 °F /  4.7 °C 35.8 °F /  2.1 °C 30.2in /  1020.9hPa NNW 5.4mph /  8.7km/h 10.7mph /  17.2km/h 83% 0in /  0.0mm
17:59 40.6 °F /  4.8 °C 36.1 °F /  2.3 °C 30.2in /  1021.9hPa NW 4.3mph /  6.9km/h 10.3mph /  16.6km/h 84% 0in /  0.0mm
18:09 40.5 °F /  4.7 °C 36 °F /  2.2 °C 30.2in /  1021.9hPa NNE 1.6mph /  2.6km/h 6mph /  9.7km/h 84% 0in /  0.0mm
18:19 40.3 °F /  4.6 °C 35.8 °F /  2.1 °C 30.2in /  1021.9hPa NNE 4.3mph /  6.9km/h 11.9mph /  19.1km/h 84% 0in /  0.0mm
18:29 40.5 °F /  4.7 °C 35.8 °F /  2.1 °C 30.2in /  1021.9hPa North 3.6mph /  5.8km/h 12.1mph /  19.5km/h 83% 0in /  0.0mm
18:39 40.5 °F /  4.7 °C 35.4 °F /  1.9 °C 30.2in /  1021.9hPa NNW 6mph /  9.7km/h 8.7mph /  14.0km/h 82% 0in /  0.0mm
18:49 40.1 °F /  4.5 °C 35.1 °F /  1.7 °C 30.2in /  1021.9hPa NNW 3.4mph /  5.5km/h 6.3mph /  10.1km/h 82% 0in /  0.0mm
18:59 40.1 °F /  4.5 °C 35.8 °F /  2.1 °C 30.2in /  1022.9hPa North 5.4mph /  8.7km/h 7.8mph /  12.6km/h 84% 0in /  0.0mm
19:09 39.7 °F /  4.3 °C 35.6 °F /  2.0 °C 30.2in /  1022.9hPa North 5.8mph /  9.3km/h 7.8mph /  12.6km/h 85% 0in /  0.0mm
19:19 39.6 °F /  4.2 °C 35.8 °F /  2.1 °C 30.2in /  1022.9hPa North 5.4mph /  8.7km/h 7.2mph /  11.6km/h 86% 0in /  0.0mm
19:29 39.2 °F /  4.0 °C 35.8 °F /  2.1 °C 30.2in /  1022.9hPa WNW 1.3mph /  2.1km/h 6mph /  9.7km/h 87% 0in /  0.0mm
19:39 39 °F /  3.9 °C 35.8 °F /  2.1 °C 30.2in /  1023.9hPa WNW 2.5mph /  4.0km/h 4.9mph /  7.9km/h 88% 0in /  0.0mm
19:49 38.8 °F /  3.8 °C 36 °F /  2.2 °C 30.2in /  1023.9hPa Calm   4.3mph /  6.9km/h 89% 0in /  0.0mm
19:59 38.7 °F /  3.7 °C 35.8 °F /  2.1 °C 30.2in /  1022.9hPa West 3.4mph /  5.5km/h 3.4mph /  5.5km/h 89% 0in /  0.0mm
20:09 38.5 °F /  3.6 °C 35.4 °F /  1.9 °C 30.2in /  1022.9hPa WNW 2.7mph /  4.3km/h 3.6mph /  5.8km/h 89% 0in /  0.0mm
20:19 38.1 °F /  3.4 °C 35.2 °F /  1.8 °C 30.2in /  1022.9hPa NNW 2mph /  3.2km/h 4mph /  6.4km/h 89% 0in /  0.0mm
20:29 38.5 °F /  3.6 °C 36.1 °F /  2.3 °C 30.2in /  1022.9hPa North 3.4mph /  5.5km/h 9.2mph /  14.8km/h 91% 0in /  0.0mm
20:39 38.5 °F /  3.6 °C 35.8 °F /  2.1 °C 30.2in /  1022.9hPa West 2.7mph /  4.3km/h 7.6mph /  12.2km/h 90% 0in /  0.0mm
20:49 38.1 °F /  3.4 °C 35.2 °F /  1.8 °C 30.2in /  1022.9hPa NNW 0.9mph /  1.4km/h 4.9mph /  7.9km/h 89% 0in /  0.0mm
20:59 37.8 °F /  3.2 °C 34.9 °F /  1.6 °C 30.2in /  1022.9hPa WNW 4.7mph /  7.6km/h 4.7mph /  7.6km/h 89% 0in /  0.0mm
21:09 37.6 °F /  3.1 °C 34.7 °F /  1.5 °C 30.2in /  1022.9hPa WSW 2.5mph /  4.0km/h 6.3mph /  10.1km/h 89% 0in /  0.0mm
21:19 37.8 °F /  3.2 °C 35.2 °F /  1.8 °C 30.2in /  1022.9hPa West 3.1mph /  5.0km/h 6.7mph /  10.8km/h 90% 0in /  0.0mm
21:29 38.5 °F /  3.6 °C 36.3 °F /  2.4 °C 30.2in /  1023.9hPa West 2.5mph /  4.0km/h 6.9mph /  11.1km/h 92% 0in /  0.0mm
21:39 39 °F /  3.9 °C 36.9 °F /  2.7 °C 30.3in /  1024.9hPa NNW 6mph /  9.7km/h 10.3mph /  16.6km/h 92% 0in /  0.0mm
21:49 39 °F /  3.9 °C 36.9 °F /  2.7 °C 30.3in /  1024.9hPa NW 3.6mph /  5.8km/h 8.5mph /  13.7km/h 92% 0in /  0.0mm
21:59 39 °F /  3.9 °C 36.9 °F /  2.7 °C 30.3in /  1024.9hPa North 4mph /  6.4km/h 7.4mph /  11.9km/h 92% 0in /  0.0mm
22:09 38.7 °F /  3.7 °C 36.7 °F /  2.6 °C 30.3in /  1024.9hPa Calm   4.9mph /  7.9km/h 92% 0in /  0.0mm
22:19 38.5 °F /  3.6 °C 36.1 °F /  2.3 °C 30.3in /  1024.9hPa WNW 3.1mph /  5.0km/h 5.4mph /  8.7km/h 92% 0in /  0.0mm
22:29 37.8 °F /  3.2 °C 35.8 °F /  2.1 °C 30.3in /  1024.9hPa NW 2.7mph /  4.3km/h 6.5mph /  10.5km/h 92% 0in /  0.0mm
22:39 37.6 °F /  3.1 °C 35.4 °F /  1.9 °C 30.3in /  1024.9hPa West 2mph /  3.2km/h 3.8mph /  6.1km/h 92% 0in /  0.0mm
22:49 37 °F /  2.8 °C 35.2 °F /  1.8 °C 30.3in /  1024.9hPa Calm   4mph /  6.4km/h 93% 0in /  0.0mm
22:59 36.9 °F /  2.7 °C 34.9 °F /  1.6 °C 30.3in /  1024.9hPa West 3.6mph /  5.8km/h 3.8mph /  6.1km/h 93% 0in /  0.0mm
23:09 36.9 °F /  2.7 °C 35.2 °F /  1.8 °C 30.3in /  1024.9hPa WNW 2.9mph /  4.7km/h 4.5mph /  7.2km/h 94% 0in /  0.0mm
23:19 36.9 °F /  2.7 °C 35.4 °F /  1.9 °C 30.3in /  1024.9hPa Calm   4mph /  6.4km/h 95% 0in /  0.0mm
23:29 36.9 °F /  2.7 °C 35.4 °F /  1.9 °C 30.3in /  1024.9hPa West 2.2mph /  3.5km/h 4mph /  6.4km/h 95% 0in /  0.0mm
23:39 36.9 °F /  2.7 °C 36 °F /  2.2 °C 30.3in /  1024.9hPa WNW 1.1mph /  1.8km/h 3.6mph /  5.8km/h 96% 0in /  0.0mm
Données Historique de Météo Turbie

Mise a jour : 20/05/2018 19:26:13
Généré par Cumulus 1.9.4 (1099)